Rancho Park, California
Current Conditions -  °F | °C
As of 11:51 PM on Friday 24 Oct 2014 (Local Time) from KSMO Reporting Station
Clear Clear  
Wind Chill: 65°   Ceiling: Unl
Heat Index: 65°   Visibility: 10mi
Dew Point: 46°   Wind: 0mph
Humidity: 50%   Direction: NA
Pressure: 30.01"   Gusts: NA
Location:  34.0365°N, 118.425°W
Report Text: KSMO 250651Z AUTO 00000KT 10SM CLR 18/08 A3001 RMK AO2 SLP161 T01830078
Loading
Personal Weather Stations






























Interactive Weather Map
Tropical Storm Tracking
New forecast layout! Learn more

10-Day Weather Forecast

Advertisements
Track Severe Weather on mobile